Time;durP1;ratioP1;P1;durP2;ratioP2;P2;SDS_P1;SDS_P2;PMS_P1;PMS_P2;Temp;Humidity;BMP_temperature;BMP_pressure;BME280_temperature;BME280_humidity;BME280_pressure;Samples;Min_cycle;Max_cycle;Signal;HPM_P1;HPM_P2
2021/07/02 00:00:28;;;;;;;;;;;;;;;;;;5054703;28;20535;-56
2021/07/02 00:02:53;;;;;;;;;;;;;;;;;;5054323;28;19917;-57
2021/07/02 00:05:18;;;;;;;;;;;;;;;;;;5036502;28;19960;-56
2021/07/02 00:07:43;;;;;;;;;;;;;;;;;;5053871;28;19927;-56
2021/07/02 00:10:09;;;;;;;;;;;;;;;;;;5054323;28;19921;-56
2021/07/02 00:12:35;;;;;;;;;;;;;;;;;;5054403;28;19924;-58
2021/07/02 00:15:00;;;;;;;;;;;;;;;;;;5054025;28;19916;-57
2021/07/02 00:17:25;;;;;;;;;;;;;;;;;;5053273;28;19956;-58
2021/07/02 00:19:50;;;;;;;;;;;;;;;;;;5054239;28;19920;-56
2021/07/02 00:22:15;;;;;;;;;;;;;;;;;;5053924;28;19916;-58
2021/07/02 00:24:40;;;;;;;;;;;;;;;;;;5054792;28;20432;-56
2021/07/02 00:27:06;;;;;;;;;;;;;;;;;;5054802;28;20016;-57
2021/07/02 00:29:31;;;;;;;;;;;;;;;;;;5054261;28;19921;-58
2021/07/02 00:31:57;;;;;;;;;;;;;;;;;;5053026;28;20299;-58
2021/07/02 00:34:22;;;;;;;;;;;;;;;;;;5054608;28;20454;-57
2021/07/02 00:36:47;;;;;;;;;;;;;;;;;;5054565;28;19963;-56
2021/07/02 00:39:12;;;;;;;;;;;;;;;;;;5066550;28;19921;-56
2021/07/02 00:41:37;;;;;;;;;;;;;;;;;;5053037;28;19916;-58
2021/07/02 00:44:03;;;;;;;;;;;;;;;;;;5052556;28;19916;-56
2021/07/02 00:46:28;;;;;;;;;;;;;;;;;;5054411;28;20342;-56
2021/07/02 00:48:54;;;;;;;;;;;;;;;;;;5053695;28;19916;-56
2021/07/02 00:51:19;;;;;;;;;;;;;;;;;;5053583;28;19917;-56
2021/07/02 00:53:45;;;;;;;;;;;;;;;;;;5054020;28;19912;-58
2021/07/02 00:56:11;;;;;;;;;;;;;;;;;;5054176;28;19921;-56
2021/07/02 00:58:36;;;;;;;;;;;;;;;;;;5053531;28;19924;-55
2021/07/02 01:01:02;;;;;;;;;;;;;;;;;;5052460;28;19963;-56
2021/07/02 01:03:27;;;;;;;;;;;;;;;;;;5051980;28;19916;-56
2021/07/02 01:05:53;;;;;;;;;;;;;;;;;;5052539;28;19916;-58
2021/07/02 01:08:19;;;;;;;;;;;;;;;;;;5052893;28;20299;-52
2021/07/02 01:10:44;;;;;;;;;;;;;;;;;;5053593;28;19913;-56
2021/07/02 01:13:09;;;;;;;;;;;;;;;;;;5054060;28;20436;-54
2021/07/02 01:15:35;;;;;;;;;;;;;;;;;;5051910;28;19917;-58
2021/07/02 01:18:04;;;;;;;;;;;;;;;;;;5053697;28;19920;-56
2021/07/02 01:20:29;;;;;;;;;;;;;;;;;;5053446;28;19917;-57
2021/07/02 01:22:55;;;;;;;;;;;;;;;;;;5053411;28;19920;-57
2021/07/02 01:25:21;;;;;;;;;;;;;;;;;;5053703;28;19913;-57
2021/07/02 01:27:46;;;;;;;;;;;;;;;;;;5055472;28;19936;-58
2021/07/02 01:30:12;;;;;;;;;;;;;;;;;;5051902;28;20398;-56
2021/07/02 01:32:37;;;;;;;;;;;;;;;;;;5052218;28;19924;-56
2021/07/02 01:35:03;;;;;;;;;;;;;;;;;;5053151;28;20370;-56
2021/07/02 01:37:28;;;;;;;;;;;;;;;;;;5053095;28;19917;-57
2021/07/02 01:39:53;;;;;;;;;;;;;;;;;;5052272;28;19916;-56
2021/07/02 01:42:18;;;;;;;;;;;;;;;;;;5051382;28;19917;-56
2021/07/02 01:44:43;;;;;;;;;;;;;;;;;;5051111;28;19924;-57
2021/07/02 01:47:09;;;;;;;;;;;;;;;;;;5052658;28;19916;-58
2021/07/02 01:49:34;;;;;;;;;;;;;;;;;;5032755;28;20433;-57
2021/07/02 01:51:59;;;;;;;;;;;;;;;;;;5051809;28;19932;-56
2021/07/02 01:54:24;;;;;;;;;;;;;;;;;;5052482;28;19924;-56
2021/07/02 01:56:50;;;;;;;;;;;;;;;;;;5053208;28;19916;-56
2021/07/02 01:59:16;;;;;;;;;;;;;;;;;;5052082;28;20440;-58
2021/07/02 02:01:42;;;;;;;;;;;;;;;;;;5051319;28;19925;-58
2021/07/02 02:04:07;;;;;;;;;;;;;;;;;;5052508;28;19970;-58
2021/07/02 02:06:32;;;;;;;;;;;;;;;;;;5052711;28;19958;-56
2021/07/02 02:08:57;;;;;;;;;;;;;;;;;;5050927;28;19929;-57
2021/07/02 02:11:22;;;;;;;;;;;;;;;;;;5050897;28;20333;-58
2021/07/02 02:13:48;;;;;;;;;;;;;;;;;;5052796;28;19913;-58
2021/07/02 02:16:13;;;;;;;;;;;;;;;;;;5052106;28;20019;-56
2021/07/02 02:18:38;;;;;;;;;;;;;;;;;;5052293;28;19923;-56
2021/07/02 02:21:03;;;;;;;;;;;;;;;;;;5050573;28;20015;-57
2021/07/02 02:23:28;;;;;;;;;;;;;;;;;;5052371;28;19988;-56
2021/07/02 02:25:54;;;;;;;;;;;;;;;;;;5064039;28;20513;-56
2021/07/02 02:28:19;;;;;;;;;;;;;;;;;;5052253;28;19919;-54
2021/07/02 02:30:44;;;;;;;;;;;;;;;;;;5051490;28;20291;-56
2021/07/02 02:33:11;;;;;;;;;;;;;;;;;;5034406;28;19966;-56
2021/07/02 02:35:36;;;;;;;;;;;;;;;;;;5053251;28;19924;-55
2021/07/02 02:38:02;;;;;;;;;;;;;;;;;;5051385;28;19913;-56
2021/07/02 02:40:27;;;;;;;;;;;;;;;;;;5050482;28;19917;-57
2021/07/02 02:42:53;;;;;;;;;;;;;;;;;;5050645;28;19916;-57
2021/07/02 02:45:18;;;;;;;;;;;;;;;;;;5050834;28;19917;-58
2021/07/02 02:47:43;;;;;;;;;;;;;;;;;;5051566;28;19932;-58
2021/07/02 02:50:08;;;;;;;;;;;;;;;;;;5051758;28;19967;-57
2021/07/02 02:52:34;;;;;;;;;;;;;;;;;;5051393;28;19924;-56
2021/07/02 02:54:59;;;;;;;;;;;;;;;;;;5051951;28;19912;-58
2021/07/02 02:57:24;;;;;;;;;;;;;;;;;;5050970;28;20626;-56
2021/07/02 02:59:49;;;;;;;;;;;;;;;;;;5051153;28;19917;-57
2021/07/02 03:02:14;;;;;;;;;;;;;;;;;;5050862;28;19921;-57
2021/07/02 03:04:40;;;;;;;;;;;;;;;;;;5051811;28;19951;-56
2021/07/02 03:07:05;;;;;;;;;;;;;;;;;;5051098;28;20290;-57
2021/07/02 03:09:31;;;;;;;;;;;;;;;;;;5051254;28;19924;-58
2021/07/02 03:11:56;;;;;;;;;;;;;;;;;;5051823;28;19979;-56
2021/07/02 03:14:22;;;;;;;;;;;;;;;;;;5051762;28;20286;-57
2021/07/02 03:16:47;;;;;;;;;;;;;;;;;;5051275;28;19916;-56
2021/07/02 03:19:13;;;;;;;;;;;;;;;;;;5051073;28;20016;-56
2021/07/02 03:21:38;;;;;;;;;;;;;;;;;;5050469;28;20015;-57
2021/07/02 03:24:04;;;;;;;;;;;;;;;;;;5050789;28;20011;-58
2021/07/02 03:26:29;;;;;;;;;;;;;;;;;;5050827;28;20016;-57
2021/07/02 03:28:54;;;;;;;;;;;;;;;;;;5049087;28;20390;-56
2021/07/02 03:31:20;;;;;;;;;;;;;;;;;;5052450;28;19963;-58
2021/07/02 03:33:45;;;;;;;;;;;;;;;;;;5033260;28;20302;-58
2021/07/02 03:36:10;;;;;;;;;;;;;;;;;;5050375;28;19973;-58
2021/07/02 03:38:35;;;;;;;;;;;;;;;;;;5050286;28;19920;-57
2021/07/02 03:41:01;;;;;;;;;;;;;;;;;;5050728;28;20318;-58
2021/07/02 03:43:26;;;;;;;;;;;;;;;;;;5049680;28;19920;-56
2021/07/02 03:45:51;;;;;;;;;;;;;;;;;;5051353;28;20389;-57
2021/07/02 03:48:16;;;;;;;;;;;;;;;;;;5051247;28;19956;-56
2021/07/02 03:50:42;;;;;;;;;;;;;;;;;;5050504;28;19920;-57
2021/07/02 03:53:07;;;;;;;;;;;;;;;;;;5051356;28;19924;-56
2021/07/02 03:55:32;;;;;;;;;;;;;;;;;;5028766;28;19913;-56
2021/07/02 03:57:57;;;;;;;;;;;;;;;;;;5037743;28;19946;-56
2021/07/02 04:00:22;;;;;;;;;;;;;;;;;;5050583;28;20363;-56
2021/07/02 04:02:48;;;;;;;;;;;;;;;;;;5050283;28;19917;-56
2021/07/02 04:05:13;;;;;;;;;;;;;;;;;;5050863;28;19996;-56
2021/07/02 04:07:38;;;;;;;;;;;;;;;;;;5050552;28;20286;-57
2021/07/02 04:10:03;;;;;;;;;;;;;;;;;;5050774;28;19921;-57
2021/07/02 04:12:29;;;;;;;;;;;;;;;;;;5050365;28;19916;-56
2021/07/02 04:14:54;;;;;;;;;;;;;;;;;;5051137;28;19988;-56
2021/07/02 04:17:19;;;;;;;;;;;;;;;;;;5050465;28;19927;-57
2021/07/02 04:19:44;;;;;;;;;;;;;;;;;;5050549;28;20011;-56
2021/07/02 04:22:10;;;;;;;;;;;;;;;;;;5050557;28;20002;-56
2021/07/02 04:24:35;;;;;;;;;;;;;;;;;;5050685;28;19917;-57
2021/07/02 04:27:00;;;;;;;;;;;;;;;;;;5051061;28;19948;-56
2021/07/02 04:29:26;;;;;;;;;;;;;;;;;;5050057;28;19916;-58
2021/07/02 04:31:51;;;;;;;;;;;;;;;;;;5051231;28;20012;-58
2021/07/02 04:34:17;;;;;;;;;;;;;;;;;;5049602;28;20016;-58
2021/07/02 04:36:42;;;;;;;;;;;;;;;;;;5052032;28;19920;-57
2021/07/02 04:39:07;;;;;;;;;;;;;;;;;;5049995;28;20011;-56
2021/07/02 04:41:33;;;;;;;;;;;;;;;;;;5050858;28;19931;-56
2021/07/02 04:43:58;;;;;;;;;;;;;;;;;;5054226;28;19912;-56
2021/07/02 04:46:23;;;;;;;;;;;;;;;;;;5054371;28;19920;-57
2021/07/02 04:48:49;;;;;;;;;;;;;;;;;;5053434;28;19917;-56
2021/07/02 04:51:14;;;;;;;;;;;;;;;;;;5053737;28;19921;-55
2021/07/02 04:53:39;;;;;;;;;;;;;;;;;;5054478;28;20406;-57
2021/07/02 04:56:05;;;;;;;;;;;;;;;;;;5052285;28;19925;-57
2021/07/02 04:58:30;;;;;;;;;;;;;;;;;;5053299;28;19924;-56
2021/07/02 05:00:55;;;;;;;;;;;;;;;;;;5053963;28;19919;-56
2021/07/02 05:03:20;;;;;;;;;;;;;;;;;;5053659;28;19931;-56
2021/07/02 05:05:46;;;;;;;;;;;;;;;;;;5053595;28;19924;-54
2021/07/02 05:08:11;;;;;;;;;;;;;;;;;;5053381;28;20350;-56
2021/07/02 05:10:37;;;;;;;;;;;;;;;;;;5053638;28;19916;-56
2021/07/02 05:13:02;;;;;;;;;;;;;;;;;;5051987;28;20003;-57
2021/07/02 05:15:28;;;;;;;;;;;;;;;;;;5053728;28;19913;-58
2021/07/02 05:17:53;;;;;;;;;;;;;;;;;;5053247;28;19963;-56
2021/07/02 05:20:18;;;;;;;;;;;;;;;;;;5053220;28;19917;-55
2021/07/02 05:22:43;;;;;;;;;;;;;;;;;;5056379;28;20369;-56
2021/07/02 05:25:09;;;;;;;;;;;;;;;;;;5052532;28;19924;-55
2021/07/02 05:27:34;;;;;;;;;;;;;;;;;;5053698;28;19962;-57
2021/07/02 05:29:59;;;;;;;;;;;;;;;;;;5052280;28;19970;-56
2021/07/02 05:32:24;;;;;;;;;;;;;;;;;;5053642;28;19917;-58
2021/07/02 05:34:49;;;;;;;;;;;;;;;;;;5051330;28;20329;-57
2021/07/02 05:37:15;;;;;;;;;;;;;;;;;;5052910;28;19983;-53
2021/07/02 05:39:40;;;;;;;;;;;;;;;;;;5051100;28;19917;-57
2021/07/02 05:42:05;;;;;;;;;;;;;;;;;;5052240;28;20294;-56
2021/07/02 05:44:31;;;;;;;;;;;;;;;;;;5052725;28;19917;-56
2021/07/02 05:46:56;;;;;;;;;;;;;;;;;;5053515;28;19920;-56
2021/07/02 05:49:21;;;;;;;;;;;;;;;;;;5052192;28;19943;-56
2021/07/02 05:51:47;;;;;;;;;;;;;;;;;;5051857;28;19917;-55
2021/07/02 05:54:12;;;;;;;;;;;;;;;;;;5053048;28;19916;-56
2021/07/02 05:56:38;;;;;;;;;;;;;;;;;;5053464;28;19970;-56
2021/07/02 05:59:03;;;;;;;;;;;;;;;;;;5046212;28;19917;-57
2021/07/02 06:01:29;;;;;;;;;;;;;;;;;;5052658;28;19916;-56
2021/07/02 06:03:54;;;;;;;;;;;;;;;;;;5052868;28;19924;-56
2021/07/02 06:06:20;;;;;;;;;;;;;;;;;;5051328;28;20442;-56
2021/07/02 06:08:46;;;;;;;;;;;;;;;;;;5051031;28;19970;-56
2021/07/02 06:11:11;;;;;;;;;;;;;;;;;;5050980;28;20290;-56
2021/07/02 06:13:36;;;;;;;;;;;;;;;;;;5052249;28;19917;-56
2021/07/02 06:16:02;;;;;;;;;;;;;;;;;;5052540;28;19993;-55
2021/07/02 06:18:27;;;;;;;;;;;;;;;;;;5052238;28;19955;-56
2021/07/02 06:20:52;;;;;;;;;;;;;;;;;;5052661;28;20280;-56
2021/07/02 06:23:21;;;;;;;;;;;;;;;;;;5052260;28;19917;-56
2021/07/02 06:25:47;;;;;;;;;;;;;;;;;;5051834;28;19917;-57
2021/07/02 06:28:12;;;;;;;;;;;;;;;;;;5051946;28;19917;-57
2021/07/02 06:30:37;;;;;;;;;;;;;;;;;;5052066;28;19923;-57
2021/07/02 06:33:03;;;;;;;;;;;;;;;;;;5054086;28;19917;-56
2021/07/02 06:35:28;;;;;;;;;;;;;;;;;;5051297;28;20008;-56
2021/07/02 06:37:53;;;;;;;;;;;;;;;;;;5051806;28;19917;-57
2021/07/02 06:40:19;;;;;;;;;;;;;;;;;;5050407;28;19944;-57
2021/07/02 06:42:44;;;;;;;;;;;;;;;;;;5039260;28;20276;-56
2021/07/02 06:45:11;;;;;;;;;;;;;;;;;;5049763;28;19952;-56
2021/07/02 06:47:47;;;;;;;;;;;;;;;;;;5040927;28;19999;-55
2021/07/02 06:50:13;;;;;;;;;;;;;;;;;;5032275;28;19971;-56
2021/07/02 06:52:38;;;;;;;;;;;;;;;;;;5049232;28;20343;-57
2021/07/02 06:55:03;;;;;;;;;;;;;;;;;;5050371;28;19923;-57
2021/07/02 06:57:28;;;;;;;;;;;;;;;;;;5050480;28;19921;-58
2021/07/02 06:59:57;;;;;;;;;;;;;;;;;;5037598;28;19920;-58
2021/07/02 07:02:23;;;;;;;;;;;;;;;;;;5036654;28;19975;-56
2021/07/02 07:04:48;;;;;;;;;;;;;;;;;;5046352;28;19920;-57
2021/07/02 07:07:13;;;;;;;;;;;;;;;;;;5052118;28;20298;-58
2021/07/02 07:09:38;;;;;;;;;;;;;;;;;;5046186;28;19963;-59
2021/07/02 07:12:04;;;;;;;;;;;;;;;;;;5038732;28;19917;-57
2021/07/02 07:14:29;;;;;;;;;;;;;;;;;;5031806;28;19913;-56
2021/07/02 07:16:54;;;;;;;;;;;;;;;;;;5013916;28;20284;-56
2021/07/02 07:19:28;;;;;;;;;;;;;;;;;;5032419;28;19921;-56
2021/07/02 07:21:53;;;;;;;;;;;;;;;;;;5053884;28;19927;-56
2021/07/02 07:24:18;;;;;;;;;;;;;;;;;;5051786;28;19913;-58
2021/07/02 07:26:43;;;;;;;;;;;;;;;;;;5051670;28;20121;-56
2021/07/02 07:29:09;;;;;;;;;;;;;;;;;;5051293;28;19913;-56
2021/07/02 07:31:34;;;;;;;;;;;;;;;;;;5051588;28;20333;-59
2021/07/02 07:34:01;;;;;;;;;;;;;;;;;;5051574;28;20351;-58
2021/07/02 07:36:27;;;;;;;;;;;;;;;;;;5051725;28;19932;-56
2021/07/02 07:38:53;;;;;;;;;;;;;;;;;;5048167;28;19917;-58
2021/07/02 07:41:20;;;;;;;;;;;;;;;;;;5050735;28;19939;-58
2021/07/02 07:43:45;;;;;;;;;;;;;;;;;;5051540;28;19924;-58
2021/07/02 07:46:10;;;;;;;;;;;;;;;;;;5048332;28;19917;-58
2021/07/02 07:48:35;;;;;;;;;;;;;;;;;;5049089;28;19924;-55
2021/07/02 07:51:15;;;;;;;;;;;;;;;;;;5050981;28;19971;-58
2021/07/02 07:53:40;;;;;;;;;;;;;;;;;;5057905;28;19920;-57
2021/07/02 07:56:05;;;;;;;;;;;;;;;;;;5049722;28;19921;-58
2021/07/02 07:58:30;;;;;;;;;;;;;;;;;;5050620;28;19917;-57
2021/07/02 08:00:55;;;;;;;;;;;;;;;;;;5047031;28;19916;-57
2021/07/02 08:03:21;;;;;;;;;;;;;;;;;;5046659;28;20054;-56
2021/07/02 08:05:46;;;;;;;;;;;;;;;;;;5057543;28;20562;-56
2021/07/02 08:08:12;;;;;;;;;;;;;;;;;;5052606;28;19920;-58
2021/07/02 08:10:38;;;;;;;;;;;;;;;;;;5060307;28;19916;-57
2021/07/02 08:13:03;;;;;;;;;;;;;;;;;;5056035;28;19919;-58
2021/07/02 08:15:28;;;;;;;;;;;;;;;;;;5068196;28;19916;-58
2021/07/02 08:17:53;;;;;;;;;;;;;;;;;;5058238;28;20443;-58
2021/07/02 08:20:19;;;;;;;;;;;;;;;;;;5066313;28;19952;-56
2021/07/02 08:22:44;;;;;;;;;;;;;;;;;;5062979;28;20006;-57
2021/07/02 08:25:09;;;;;;;;;;;;;;;;;;5053233;28;19921;-58
2021/07/02 08:29:22;;;;;;;;;;;;;;;;;;5070750;28;19917;-57
2021/07/02 08:30:20;;;;;;;;;;;;;;;;;;5056726;28;19925;-57
2021/07/02 08:32:45;;;;;;;;;;;;;;;;;;5056449;28;20012;-58
2021/07/02 08:35:11;;;;;;;;;;;;;;;;;;5049681;28;19924;-56
2021/07/02 08:37:36;;;;;;;;;;;;;;;;;;5066709;28;19975;-58
2021/07/02 08:40:01;;;;;;;;;;;;;;;;;;5067095;28;19913;-58
2021/07/02 08:42:26;;;;;;;;;;;;;;;;;;5053251;28;20351;-57
2021/07/02 08:44:52;;;;;;;;;;;;;;;;;;5056675;28;19924;-55
2021/07/02 08:47:17;;;;;;;;;;;;;;;;;;5051056;28;19920;-61
2021/07/02 08:49:43;;;;;;;;;;;;;;;;;;5057212;28;19972;-56
2021/07/02 08:52:09;;;;;;;;;;;;;;;;;;5053935;28;19939;-58
2021/07/02 08:54:34;;;;;;;;;;;;;;;;;;5068175;28;19960;-58
2021/07/02 08:56:59;;;;;;;;;;;;;;;;;;5073723;28;19917;-58
2021/07/02 08:59:25;;;;;;;;;;;;;;;;;;5067869;28;19916;-60
2021/07/02 09:01:51;;;;;;;;;;;;;;;;;;5061892;28;20333;-58
2021/07/02 09:04:16;;;;;;;;;;;;;;;;;;5060568;28;19917;-62
2021/07/02 09:06:41;;;;;;;;;;;;;;;;;;5066350;28;19916;-61
2021/07/02 09:09:09;;;;;;;;;;;;;;;;;;5060246;28;19967;-62
2021/07/02 09:14:25;;;;;;;;;;;;;;;;;;5072718;27;20008;-60
2021/07/02 09:16:50;;;;;;;;;;;;;;;;;;5073164;28;19983;-64
2021/07/02 09:19:20;;;;;;;;;;;;;;;;;;5071584;28;19916;-63
2021/07/02 09:21:45;;;;;;;;;;;;;;;;;;5072955;28;20339;-64
2021/07/02 09:24:30;;;;;;;;;;;;;;;;;;5068526;28;20385;-66
2021/07/02 09:26:55;;;;;;;;;;;;;;;;;;5054876;28;19960;-66
2021/07/02 09:29:23;;;;;;;;;;;;;;;;;;5076061;28;19962;-64
2021/07/02 09:31:56;;;;;;;;;;;;;;;;;;5074417;28;20343;-65
2021/07/02 09:34:21;;;;;;;;;;;;;;;;;;5072751;28;19916;-64
2021/07/02 09:36:46;;;;;;;;;;;;;;;;;;5083013;28;19966;-66
2021/07/02 09:39:28;;;;;;;;;;;;;;;;;;5073394;28;19923;-66
2021/07/02 09:41:53;;;;;;;;;;;;;;;;;;5074162;28;19923;-65
2021/07/02 09:44:18;;;;;;;;;;;;;;;;;;5068235;28;19913;-65
2021/07/02 09:46:43;;;;;;;;;;;;;;;;;;5084254;28;19924;-65
2021/07/02 09:49:22;;;;;;;;;;;;;;;;;;5074077;28;19919;-65
2021/07/02 09:51:47;;;;;;;;;;;;;;;;;;5075964;28;19916;-64
2021/07/02 09:54:13;;;;;;;;;;;;;;;;;;5083226;28;20313;-65
2021/07/02 09:56:38;;;;;;;;;;;;;;;;;;5071230;28;19919;-64
2021/07/02 09:59:13;;;;;;;;;;;;;;;;;;5081939;28;19917;-62
2021/07/02 10:01:39;;;;;;;;;;;;;;;;;;5078504;28;19913;-65
2021/07/02 10:04:07;;;;;;;;;;;;;;;;;;5073188;28;20023;-65
2021/07/02 10:06:32;;;;;;;;;;;;;;;;;;5084084;28;19913;-65
2021/07/02 10:09:03;;;;;;;;;;;;;;;;;;5072431;28;19912;-65
2021/07/02 10:11:28;;;;;;;;;;;;;;;;;;5078575;28;19952;-65
2021/07/02 10:13:54;;;;;;;;;;;;;;;;;;5097781;28;19951;-63
2021/07/02 10:16:19;;;;;;;;;;;;;;;;;;5090937;28;20488;-66
2021/07/02 10:18:46;;;;;;;;;;;;;;;;;;5103740;28;19912;-64
2021/07/02 10:21:13;;;;;;;;;;;;;;;;;;5094671;28;19917;-63
2021/07/02 10:23:40;;;;;;;;;;;;;;;;;;5095102;28;19924;-64
2021/07/02 10:26:07;;;;;;;;;;;;;;;;;;5088361;28;19912;-63
2021/07/02 10:28:34;;;;;;;;;;;;;;;;;;5077242;28;20020;-65
2021/07/02 10:31:01;;;;;;;;;;;;;;;;;;5080333;28;19920;-64
2021/07/02 10:33:27;;;;;;;;;;;;;;;;;;5078768;28;19916;-65
2021/07/02 10:35:57;;;;;;;;;;;;;;;;;;5072529;28;19924;-62
2021/07/02 10:38:22;;;;;;;;;;;;;;;;;;5088560;28;19923;-62
2021/07/02 10:40:48;;;;;;;;;;;;;;;;;;5066876;28;19916;-60
2021/07/02 10:43:14;;;;;;;;;;;;;;;;;;5075272;28;19921;-61
2021/07/02 10:45:58;;;;;;;;;;;;;;;;;;5074758;28;19924;-61
2021/07/02 10:48:44;;;;;;;;;;;;;;;;;;5084468;28;19912;-61
2021/07/02 10:51:29;;;;;;;;;;;;;;;;;;5044166;28;19916;-62
2021/07/02 10:53:57;;;;;;;;;;;;;;;;;;5086173;28;19923;-62
2021/07/02 10:56:26;;;;;;;;;;;;;;;;;;5081967;28;20405;-63
2021/07/02 10:58:52;;;;;;;;;;;;;;;;;;5077593;28;19917;-61
2021/07/02 11:01:18;;;;;;;;;;;;;;;;;;5083356;28;19916;-62
2021/07/02 11:03:43;;;;;;;;;;;;;;;;;;5081622;28;19973;-63
2021/07/02 11:06:27;;;;;;;;;;;;;;;;;;5074535;28;19939;-62
2021/07/02 11:08:52;;;;;;;;;;;;;;;;;;5070734;28;19923;-62
2021/07/02 11:11:17;;;;;;;;;;;;;;;;;;5084126;28;20344;-62
2021/07/02 11:14:01;;;;;;;;;;;;;;;;;;5082177;28;20266;-61
2021/07/02 11:16:26;;;;;;;;;;;;;;;;;;5064190;28;19917;-61
2021/07/02 11:18:51;;;;;;;;;;;;;;;;;;5072882;28;19917;-62
2021/07/02 11:21:17;;;;;;;;;;;;;;;;;;5084027;28;19916;-62
2021/07/02 11:23:43;;;;;;;;;;;;;;;;;;5074043;28;19970;-60
2021/07/02 11:26:11;;;;;;;;;;;;;;;;;;5073370;28;20011;-61
2021/07/02 11:28:41;;;;;;;;;;;;;;;;;;5082457;28;19965;-61
2021/07/02 11:31:08;;;;;;;;;;;;;;;;;;5072726;28;19921;-63
2021/07/02 11:33:33;;;;;;;;;;;;;;;;;;5072169;28;19985;-63
2021/07/02 11:35:58;;;;;;;;;;;;;;;;;;5071268;28;20378;-61
2021/07/02 11:38:24;;;;;;;;;;;;;;;;;;5072211;28;20419;-62
2021/07/02 11:40:54;;;;;;;;;;;;;;;;;;5071730;28;20011;-61
2021/07/02 11:43:20;;;;;;;;;;;;;;;;;;5065015;28;20309;-62
2021/07/02 11:45:51;;;;;;;;;;;;;;;;;;5052550;28;20007;-62
2021/07/02 11:48:19;;;;;;;;;;;;;;;;;;5066405;28;20306;-62
2021/07/02 11:50:45;;;;;;;;;;;;;;;;;;5072080;28;19913;-61
2021/07/02 11:53:25;;;;;;;;;;;;;;;;;;5071354;28;19973;-61
2021/07/02 11:55:58;;;;;;;;;;;;;;;;;;5072096;28;20492;-61
2021/07/02 11:58:26;;;;;;;;;;;;;;;;;;5070419;28;19917;-61
2021/07/02 12:00:51;;;;;;;;;;;;;;;;;;5071797;28;19916;-62
2021/07/02 12:03:17;;;;;;;;;;;;;;;;;;5071111;28;19927;-61
2021/07/02 12:05:51;;;;;;;;;;;;;;;;;;5052932;28;19924;-61
2021/07/02 12:08:18;;;;;;;;;;;;;;;;;;5071706;28;19947;-59
2021/07/02 12:10:44;;;;;;;;;;;;;;;;;;5086523;28;19913;-60
2021/07/02 12:13:09;;;;;;;;;;;;;;;;;;5080161;28;19927;-57
2021/07/02 12:15:35;;;;;;;;;;;;;;;;;;5080482;28;20056;-62
2021/07/02 12:18:04;;;;;;;;;;;;;;;;;;5069421;28;20009;-59
2021/07/02 12:20:30;;;;;;;;;;;;;;;;;;5070272;28;20077;-62
2021/07/02 12:23:05;;;;;;;;;;;;;;;;;;5070765;28;20408;-59
2021/07/02 12:25:30;;;;;;;;;;;;;;;;;;5071584;28;20382;-61
2021/07/02 12:27:59;;;;;;;;;;;;;;;;;;5069814;28;20019;-61
2021/07/02 12:30:25;;;;;;;;;;;;;;;;;;5070544;28;20035;-61
2021/07/02 12:32:54;;;;;;;;;;;;;;;;;;5068876;28;20001;-62
2021/07/02 12:35:20;;;;;;;;;;;;;;;;;;5072536;28;20425;-61
2021/07/02 12:37:45;;;;;;;;;;;;;;;;;;5070476;28;19916;-65
2021/07/02 12:40:13;;;;;;;;;;;;;;;;;;5064070;28;19921;-64
2021/07/02 12:42:39;;;;;;;;;;;;;;;;;;5070420;28;19921;-62
2021/07/02 12:45:05;;;;;;;;;;;;;;;;;;5070676;28;19954;-65
2021/07/02 12:47:32;;;;;;;;;;;;;;;;;;5069946;28;19924;-64
2021/07/02 12:50:02;;;;;;;;;;;;;;;;;;5071026;28;19970;-64
2021/07/02 12:55:03;;;;;;;;;;;;;;;;;;5070243;28;19967;-63
2021/07/02 12:57:28;;;;;;;;;;;;;;;;;;5069912;28;19940;-64
2021/07/02 12:59:56;;;;;;;;;;;;;;;;;;5070227;28;19962;-64
2021/07/02 13:02:41;;;;;;;;;;;;;;;;;;5069530;28;19966;-64
2021/07/02 13:05:10;;;;;;;;;;;;;;;;;;5068070;28;20003;-65
2021/07/02 13:07:54;;;;;;;;;;;;;;;;;;5070386;28;20156;-65
2021/07/02 13:10:42;;;;;;;;;;;;;;;;;;5068321;28;20353;-64
2021/07/02 13:13:18;;;;;;;;;;;;;;;;;;5064555;28;19920;-64
2021/07/02 13:15:47;;;;;;;;;;;;;;;;;;5075721;28;19920;-64
2021/07/02 13:18:22;;;;;;;;;;;;;;;;;;5083957;28;20551;-64
2021/07/02 13:20:49;;;;;;;;;;;;;;;;;;5075021;28;20377;-65
2021/07/02 13:23:15;;;;;;;;;;;;;;;;;;5078335;28;19921;-64
2021/07/02 13:25:41;;;;;;;;;;;;;;;;;;5085650;28;19997;-63
2021/07/02 13:28:06;;;;;;;;;;;;;;;;;;5071222;28;20405;-64
2021/07/02 13:30:35;;;;;;;;;;;;;;;;;;5082675;28;20003;-63
2021/07/02 13:33:04;;;;;;;;;;;;;;;;;;5073958;28;19924;-63
2021/07/02 13:35:29;;;;;;;;;;;;;;;;;;5087509;28;19947;-62
2021/07/02 13:37:55;;;;;;;;;;;;;;;;;;5077305;28;20325;-61
2021/07/02 13:40:50;;;;;;;;;;;;;;;;;;5075077;28;19940;-64
2021/07/02 13:43:15;;;;;;;;;;;;;;;;;;5061527;28;20434;-63
2021/07/02 13:45:56;;;;;;;;;;;;;;;;;;5083386;28;19974;-64
2021/07/02 13:48:21;;;;;;;;;;;;;;;;;;5080489;28;19920;-63
2021/07/02 13:50:47;;;;;;;;;;;;;;;;;;5073993;28;19920;-65
2021/07/02 13:53:17;;;;;;;;;;;;;;;;;;5085377;28;19921;-64
2021/07/02 13:55:42;;;;;;;;;;;;;;;;;;5085117;28;19919;-64
2021/07/02 13:58:08;;;;;;;;;;;;;;;;;;5075379;28;19916;-64
2021/07/02 14:00:33;;;;;;;;;;;;;;;;;;5065424;28;19916;-64
2021/07/02 14:02:58;;;;;;;;;;;;;;;;;;5089741;28;20404;-64
2021/07/02 14:05:23;;;;;;;;;;;;;;;;;;5091491;28;19920;-65
2021/07/02 14:07:48;;;;;;;;;;;;;;;;;;5080251;28;19935;-62
2021/07/02 14:10:14;;;;;;;;;;;;;;;;;;5084410;28;20362;-65
2021/07/02 14:12:39;;;;;;;;;;;;;;;;;;5087288;28;19916;-65
2021/07/02 14:15:04;;;;;;;;;;;;;;;;;;5077518;28;19916;-64
2021/07/02 14:17:29;;;;;;;;;;;;;;;;;;5060786;28;20021;-64
2021/07/02 14:19:56;;;;;;;;;;;;;;;;;;5087053;28;19981;-64
2021/07/02 14:22:21;;;;;;;;;;;;;;;;;;5084891;28;20027;-64
2021/07/02 14:24:46;;;;;;;;;;;;;;;;;;5079880;28;20413;-65
2021/07/02 14:27:11;;;;;;;;;;;;;;;;;;5090401;28;19912;-64
2021/07/02 14:29:36;;;;;;;;;;;;;;;;;;5080494;28;19912;-63
2021/07/02 14:32:02;;;;;;;;;;;;;;;;;;5085862;28;20378;-64
2021/07/02 14:34:27;;;;;;;;;;;;;;;;;;5085597;28;19922;-64
2021/07/02 14:36:52;;;;;;;;;;;;;;;;;;5078546;28;19916;-64
2021/07/02 14:39:17;;;;;;;;;;;;;;;;;;5090244;28;19912;-65
2021/07/02 14:41:43;;;;;;;;;;;;;;;;;;5079936;28;20007;-64
2021/07/02 14:44:08;;;;;;;;;;;;;;;;;;5091506;28;19920;-65
2021/07/02 14:46:33;;;;;;;;;;;;;;;;;;5084218;28;19913;-65
2021/07/02 14:48:58;;;;;;;;;;;;;;;;;;5091359;28;19958;-64
2021/07/02 14:51:23;;;;;;;;;;;;;;;;;;5076496;28;19977;-61
2021/07/02 14:53:50;;;;;;;;;;;;;;;;;;5077916;28;20242;-60
2021/07/02 14:56:15;;;;;;;;;;;;;;;;;;5083269;28;19975;-61
2021/07/02 14:58:41;;;;;;;;;;;;;;;;;;5090857;28;20318;-61
2021/07/02 15:01:06;;;;;;;;;;;;;;;;;;5075608;28;19963;-59
2021/07/02 15:03:31;;;;;;;;;;;;;;;;;;5093500;28;20004;-61
2021/07/02 15:05:56;;;;;;;;;;;;;;;;;;5085672;28;19959;-68
2021/07/02 15:08:21;;;;;;;;;;;;;;;;;;5083741;28;19987;-60
2021/07/02 15:10:47;;;;;;;;;;;;;;;;;;5077606;28;19917;-61
2021/07/02 15:13:12;;;;;;;;;;;;;;;;;;5089630;28;20023;-63
2021/07/02 15:15:37;;;;;;;;;;;;;;;;;;5074286;28;20362;-63
2021/07/02 15:18:02;;;;;;;;;;;;;;;;;;5080718;28;20381;-61
2021/07/02 15:20:28;;;;;;;;;;;;;;;;;;5080856;28;19959;-60
2021/07/02 15:22:53;;;;;;;;;;;;;;;;;;5070788;28;20372;-61
2021/07/02 15:25:19;;;;;;;;;;;;;;;;;;5075667;28;19921;-60
2021/07/02 15:27:44;;;;;;;;;;;;;;;;;;5077908;28;19924;-59
2021/07/02 15:30:28;;;;;;;;;;;;;;;;;;5081402;28;19916;-59
2021/07/02 15:32:54;;;;;;;;;;;;;;;;;;5066567;28;19968;-59
2021/07/02 15:35:19;;;;;;;;;;;;;;;;;;5077217;28;19987;-59
2021/07/02 15:37:44;;;;;;;;;;;;;;;;;;5076857;28;20015;-60
2021/07/02 15:40:10;;;;;;;;;;;;;;;;;;5085065;28;19998;-60
2021/07/02 15:42:35;;;;;;;;;;;;;;;;;;5078012;28;19974;-60
2021/07/02 15:45:00;;;;;;;;;;;;;;;;;;5084789;28;19971;-62
2021/07/02 15:47:26;;;;;;;;;;;;;;;;;;5078505;28;19916;-62
2021/07/02 15:49:51;;;;;;;;;;;;;;;;;;5071822;28;19923;-60
2021/07/02 15:52:17;;;;;;;;;;;;;;;;;;5079527;28;19916;-60
2021/07/02 15:54:42;;;;;;;;;;;;;;;;;;5080139;28;20301;-61
2021/07/02 15:57:07;;;;;;;;;;;;;;;;;;5082612;28;19917;-62
2021/07/02 15:59:32;;;;;;;;;;;;;;;;;;5077100;28;19965;-62
2021/07/02 16:01:58;;;;;;;;;;;;;;;;;;5079410;28;19923;-61
2021/07/02 16:04:23;;;;;;;;;;;;;;;;;;5073146;28;20142;-61
2021/07/02 16:06:49;;;;;;;;;;;;;;;;;;5070727;28;19916;-59
2021/07/02 16:09:14;;;;;;;;;;;;;;;;;;5069855;28;19924;-61
2021/07/02 16:11:39;;;;;;;;;;;;;;;;;;5076344;28;20007;-63
2021/07/02 16:14:05;;;;;;;;;;;;;;;;;;5071888;28;20387;-61
2021/07/02 16:16:30;;;;;;;;;;;;;;;;;;5082054;28;19983;-63
2021/07/02 16:18:55;;;;;;;;;;;;;;;;;;5074321;28;19916;-61
2021/07/02 16:21:20;;;;;;;;;;;;;;;;;;5083456;28;19976;-60
2021/07/02 16:23:45;;;;;;;;;;;;;;;;;;5075124;28;19917;-62
2021/07/02 16:26:11;;;;;;;;;;;;;;;;;;5080933;28;20003;-63
2021/07/02 16:28:36;;;;;;;;;;;;;;;;;;5082383;28;19915;-62
2021/07/02 16:31:01;;;;;;;;;;;;;;;;;;5074157;28;19966;-62
2021/07/02 16:33:26;;;;;;;;;;;;;;;;;;5090570;28;19972;-63
2021/07/02 16:35:52;;;;;;;;;;;;;;;;;;5085399;28;19912;-63
2021/07/02 16:38:17;;;;;;;;;;;;;;;;;;5081655;28;19916;-63
2021/07/02 16:40:42;;;;;;;;;;;;;;;;;;5078145;28;19912;-63
2021/07/02 16:43:07;;;;;;;;;;;;;;;;;;5084256;28;19921;-61
2021/07/02 16:45:32;;;;;;;;;;;;;;;;;;5087937;28;20007;-63